PWSweather.com
Personal Weather Stations
Station Observations
KOHAVON11
Long Road Station, Avon, OH 44011

Long Road StationAvon, OH 44011

Lat: 41.437, Lon: -82.0477

Elevation: 686

Station Type: Davis Vantage Pro2

http://www.avon-weather.com

High Low Average
Temperature 82.3°F27.9°C 66.5°F19.2°C 72.7°F22.6°C
Dew Point 72.4°F22.4°C 61.9°F16.6°C 65.2°F18.4°C
Winds 13.0 mph 20.9 kmh Calm Calm 2.0 mph WSW3.2 kmh WSW
Wind Gusts 17.0 mph27.4 kmh -- 6.0 mph9.7 kmh
Humidity 90% 59% 79%
Pressure 29.95 in1014.2 mb 29.77 in1008.1 mb -
Precipitation 0.25 in6.4 mm - -
Hour Temp Dew Point Humidity Winds Wind Gusts Pressure Precip Precip Rate Daily Precip Total
12:02 AM 67.0°F19.4°C 63.9°F17.7°C 90% Calm Calm -- 29.82 in1009.8 mb 0.00 in0.0 mm 0.00 in0.0 mm 0.00 in0.0 mm
12:07 AM 67.0°F19.4°C 63.9°F17.7°C 90% 3.0 mph SSE4.8 kmh SSE 3.0 mph4.8 kmh 29.82 in1009.8 mb 0.00 in0.0 mm 0.00 in0.0 mm 0.00 in0.0 mm
12:12 AM 67.0°F19.4°C 63.9°F17.7°C 90% 1.0 mph SSE1.6 kmh SSE 6.0 mph9.7 kmh 29.82 in1009.8 mb 0.00 in0.0 mm 0.00 in0.0 mm 0.00 in0.0 mm
12:17 AM 67.0°F19.4°C 63.9°F17.7°C 90% 2.0 mph SE3.2 kmh SE 6.0 mph9.7 kmh 29.82 in1009.8 mb 0.00 in0.0 mm 0.00 in0.0 mm 0.00 in0.0 mm
12:22 AM 67.0°F19.4°C 63.9°F17.7°C 90% 2.0 mph SSE3.2 kmh SSE 9.0 mph14.5 kmh 29.82 in1009.8 mb 0.00 in0.0 mm 0.00 in0.0 mm 0.00 in0.0 mm
12:27 AM 67.0°F19.4°C 63.9°F17.7°C 90% 2.0 mph SSE3.2 kmh SSE 9.0 mph14.5 kmh 29.82 in1009.8 mb 0.00 in0.0 mm 0.00 in0.0 mm 0.00 in0.0 mm
12:32 AM 67.0°F19.4°C 63.9°F17.7°C 90% 5.0 mph SW8.0 kmh SW 9.0 mph14.5 kmh 29.82 in1009.8 mb 0.00 in0.0 mm 0.00 in0.0 mm 0.00 in0.0 mm
12:37 AM 67.0°F19.4°C 63.9°F17.7°C 90% 3.0 mph SW4.8 kmh SW 9.0 mph14.5 kmh 29.83 in1010.2 mb 0.00 in0.0 mm 0.00 in0.0 mm 0.00 in0.0 mm
12:42 AM 67.0°F19.4°C 63.9°F17.7°C 90% 2.0 mph S3.2 kmh S 8.0 mph12.9 kmh 29.83 in1010.2 mb 0.00 in0.0 mm 0.00 in0.0 mm 0.00 in0.0 mm
12:47 AM 67.0°F19.4°C 63.9°F17.7°C 90% 4.0 mph S6.4 kmh S 8.0 mph12.9 kmh 29.83 in1010.2 mb 0.00 in0.0 mm 0.00 in0.0 mm 0.00 in0.0 mm
12:52 AM 67.0°F19.4°C 63.9°F17.7°C 90% 3.0 mph S4.8 kmh S 7.0 mph11.3 kmh 29.83 in1010.2 mb 0.00 in0.0 mm 0.00 in0.0 mm 0.00 in0.0 mm
12:57 AM 67.1°F19.5°C 64.0°F17.8°C 90% 5.0 mph SSE8.0 kmh SSE 7.0 mph11.3 kmh 29.82 in1009.8 mb 0.00 in0.0 mm 0.00 in0.0 mm 0.00 in0.0 mm
01:02 AM 67.1°F19.5°C 64.0°F17.8°C 90% 3.0 mph S4.8 kmh S 7.0 mph11.3 kmh 29.82 in1009.8 mb 0.00 in0.0 mm 0.00 in0.0 mm 0.01 in0.3 mm
01:07 AM 67.0°F19.4°C 63.9°F17.7°C 90% 3.0 mph SE4.8 kmh SE 7.0 mph11.3 kmh 29.82 in1009.8 mb 0.00 in0.0 mm 0.00 in0.0 mm 0.01 in0.3 mm
01:12 AM 67.0°F19.4°C 63.9°F17.7°C 90% 4.0 mph SE6.4 kmh SE 7.0 mph11.3 kmh 29.81 in1009.5 mb 0.00 in0.0 mm 0.00 in0.0 mm 0.01 in0.3 mm
01:17 AM 67.0°F19.4°C 63.9°F17.7°C 90% 4.0 mph S6.4 kmh S 7.0 mph11.3 kmh 29.81 in1009.5 mb 0.00 in0.0 mm 0.00 in0.0 mm 0.01 in0.3 mm
01:22 AM 67.0°F19.4°C 63.9°F17.7°C 90% 4.0 mph SSE6.4 kmh SSE 7.0 mph11.3 kmh 29.81 in1009.5 mb 0.00 in0.0 mm 0.00 in0.0 mm 0.02 in0.5 mm
01:27 AM 66.9°F19.4°C 63.8°F17.7°C 90% 4.0 mph S6.4 kmh S 9.0 mph14.5 kmh 29.81 in1009.5 mb 0.00 in0.0 mm 0.00 in0.0 mm 0.02 in0.5 mm
01:32 AM 66.9°F19.4°C 63.8°F17.7°C 90% 7.0 mph S11.3 kmh S 9.0 mph14.5 kmh 29.80 in1009.1 mb 0.00 in0.0 mm 0.00 in0.0 mm 0.02 in0.5 mm
01:37 AM 66.8°F19.3°C 63.7°F17.6°C 90% 8.0 mph SSE12.9 kmh SSE 9.0 mph14.5 kmh 29.80 in1009.1 mb 0.00 in0.0 mm 0.00 in0.0 mm 0.02 in0.5 mm
01:42 AM 66.8°F19.3°C 63.7°F17.6°C 90% 6.0 mph SE9.7 kmh SE 9.0 mph14.5 kmh 29.80 in1009.1 mb 0.00 in0.0 mm 0.00 in0.0 mm 0.02 in0.5 mm
01:47 AM 66.8°F19.3°C 63.7°F17.6°C 90% 7.0 mph SE11.3 kmh SE 10.0 mph16.1 kmh 29.80 in1009.1 mb 0.00 in0.0 mm 0.00 in0.0 mm 0.02 in0.5 mm
01:52 AM 66.7°F19.3°C 63.6°F17.6°C 90% 8.0 mph SE12.9 kmh SE 12.0 mph19.3 kmh 29.80 in1009.1 mb 0.00 in0.0 mm 0.00 in0.0 mm 0.02 in0.5 mm
01:57 AM 66.6°F19.2°C 63.5°F17.5°C 90% 5.0 mph SSE8.0 kmh SSE 12.0 mph19.3 kmh 29.79 in1008.8 mb 0.00 in0.0 mm 0.00 in0.0 mm 0.02 in0.5 mm
02:02 AM 66.6°F19.2°C 63.5°F17.5°C 90% 4.0 mph SE6.4 kmh SE 12.0 mph19.3 kmh 29.79 in1008.8 mb 0.00 in0.0 mm 0.00 in0.0 mm 0.02 in0.5 mm
02:07 AM 66.6°F19.2°C 63.5°F17.5°C 90% 5.0 mph S8.0 kmh S 12.0 mph19.3 kmh 29.78 in1008.5 mb 0.00 in0.0 mm 0.00 in0.0 mm 0.02 in0.5 mm
02:12 AM 66.6°F19.2°C 63.5°F17.5°C 90% 6.0 mph SE9.7 kmh SE 10.0 mph16.1 kmh 29.78 in1008.5 mb 0.00 in0.0 mm 0.00 in0.0 mm 0.02 in0.5 mm
02:17 AM 66.6°F19.2°C 63.5°F17.5°C 90% 6.0 mph SSE9.7 kmh SSE 11.0 mph17.7 kmh 29.78 in1008.5 mb 0.00 in0.0 mm 0.00 in0.0 mm 0.02 in0.5 mm
02:22 AM 66.6°F19.2°C 63.5°F17.5°C 90% 3.0 mph SSE4.8 kmh SSE 11.0 mph17.7 kmh 29.78 in1008.5 mb 0.00 in0.0 mm 0.00 in0.0 mm 0.02 in0.5 mm
02:27 AM 66.6°F19.2°C 63.5°F17.5°C 90% 4.0 mph SE6.4 kmh SE 11.0 mph17.7 kmh 29.78 in1008.5 mb 0.00 in0.0 mm 0.00 in0.0 mm 0.02 in0.5 mm
02:32 AM 66.6°F19.2°C 63.5°F17.5°C 90% Calm Calm -- 29.78 in1008.5 mb 0.00 in0.0 mm 0.00 in0.0 mm 0.02 in0.5 mm
02:37 AM 66.5°F19.2°C 63.4°F17.4°C 90% Calm Calm -- 29.78 in1008.5 mb 0.00 in0.0 mm 0.00 in0.0 mm 0.02 in0.5 mm
02:42 AM 66.5°F19.2°C 63.4°F17.4°C 90% Calm Calm -- 29.77 in1008.1 mb 0.00 in0.0 mm 0.00 in0.0 mm 0.02 in0.5 mm
02:47 AM 66.5°F19.2°C 63.4°F17.4°C 90% 2.0 mph SSW3.2 kmh SSW 6.0 mph9.7 kmh 29.77 in1008.1 mb 0.00 in0.0 mm 0.00 in0.0 mm 0.02 in0.5 mm
02:52 AM 66.5°F19.2°C 63.4°F17.4°C 90% 6.0 mph S9.7 kmh S 8.0 mph12.9 kmh 29.78 in1008.5 mb 0.00 in0.0 mm 0.00 in0.0 mm 0.02 in0.5 mm
02:57 AM 66.5°F19.2°C 63.4°F17.4°C 90% Calm Calm 10.0 mph16.1 kmh 29.78 in1008.5 mb 0.00 in0.0 mm 0.00 in0.0 mm 0.02 in0.5 mm
03:02 AM 66.5°F19.2°C 63.4°F17.4°C 90% Calm Calm 7.0 mph11.3 kmh 29.77 in1008.1 mb 0.17 in4.3 mm 0.19 in4.8 mm 0.04 in1.0 mm
03:07 AM 66.5°F19.2°C 63.4°F17.4°C 90% Calm Calm 6.0 mph9.7 kmh 29.78 in1008.5 mb 0.12 in3.0 mm 0.00 in0.0 mm 0.05 in1.3 mm
03:12 AM 66.5°F19.2°C 63.4°F17.4°C 90% 2.0 mph S3.2 kmh S 3.0 mph4.8 kmh 29.78 in1008.5 mb 0.07 in1.8 mm 0.00 in0.0 mm 0.05 in1.3 mm
03:17 AM 66.5°F19.2°C 63.4°F17.4°C 90% Calm Calm -- 29.78 in1008.5 mb 0.05 in1.3 mm 0.00 in0.0 mm 0.05 in1.3 mm
03:22 AM 66.5°F19.2°C 63.4°F17.4°C 90% Calm Calm -- 29.78 in1008.5 mb 0.00 in0.0 mm 0.00 in0.0 mm 0.05 in1.3 mm
03:27 AM 66.5°F19.2°C 63.4°F17.4°C 90% Calm Calm -- 29.78 in1008.5 mb 0.00 in0.0 mm 0.00 in0.0 mm 0.05 in1.3 mm
03:32 AM 66.5°F19.2°C 63.4°F17.4°C 90% Calm Calm -- 29.78 in1008.5 mb 0.00 in0.0 mm 0.00 in0.0 mm 0.05 in1.3 mm
03:37 AM 66.5°F19.2°C 63.4°F17.4°C 90% Calm Calm -- 29.78 in1008.5 mb 0.00 in0.0 mm 0.00 in0.0 mm 0.05 in1.3 mm
03:42 AM 66.6°F19.2°C 63.5°F17.5°C 90% 2.0 mph SSW3.2 kmh SSW 2.0 mph3.2 kmh 29.78 in1008.5 mb 0.00 in0.0 mm 0.00 in0.0 mm 0.05 in1.3 mm
03:47 AM 66.6°F19.2°C 63.5°F17.5°C 90% Calm Calm 7.0 mph11.3 kmh 29.78 in1008.5 mb 0.00 in0.0 mm 0.00 in0.0 mm 0.05 in1.3 mm
03:52 AM 66.6°F19.2°C 63.5°F17.5°C 90% 6.0 mph SW9.7 kmh SW 7.0 mph11.3 kmh 29.79 in1008.8 mb 0.00 in0.0 mm 0.00 in0.0 mm 0.05 in1.3 mm
03:57 AM 66.7°F19.3°C 63.6°F17.6°C 90% 1.0 mph S1.6 kmh S 10.0 mph16.1 kmh 29.79 in1008.8 mb 0.00 in0.0 mm 0.00 in0.0 mm 0.05 in1.3 mm
04:02 AM 66.8°F19.3°C 63.7°F17.6°C 90% Calm Calm -- 29.78 in1008.5 mb 0.00 in0.0 mm 0.00 in0.0 mm 0.05 in1.3 mm
04:07 AM 66.8°F19.3°C 63.7°F17.6°C 90% Calm Calm 7.0 mph11.3 kmh 29.78 in1008.5 mb 0.22 in5.6 mm 2.64 in67.1 mm 0.06 in1.5 mm
04:12 AM 66.8°F19.3°C 63.7°F17.6°C 90% Calm Calm 9.0 mph14.5 kmh 29.79 in1008.8 mb 0.22 in5.6 mm 0.00 in0.0 mm 0.08 in2.0 mm
04:17 AM 66.8°F19.3°C 63.7°F17.6°C 90% 2.0 mph SSW3.2 kmh SSW 9.0 mph14.5 kmh 29.79 in1008.8 mb 0.55 in14.0 mm 3.96 in100.6 mm 0.13 in3.3 mm
04:22 AM 66.8°F19.3°C 63.7°F17.6°C 90% Calm Calm 10.0 mph16.1 kmh 29.78 in1008.5 mb 0.34 in8.6 mm 0.00 in0.0 mm 0.17 in4.3 mm
04:27 AM 66.8°F19.3°C 63.7°F17.6°C 90% Calm Calm 4.0 mph6.4 kmh 29.78 in1008.5 mb 0.15 in3.8 mm 0.00 in0.0 mm 0.18 in4.6 mm
04:32 AM 66.8°F19.3°C 63.7°F17.6°C 90% 2.0 mph SSW3.2 kmh SSW 6.0 mph9.7 kmh 29.78 in1008.5 mb 0.21 in5.3 mm 0.72 in18.3 mm 0.20 in5.1 mm
04:37 AM 66.8°F19.3°C 63.7°F17.6°C 90% Calm Calm 6.0 mph9.7 kmh 29.78 in1008.5 mb 0.15 in3.8 mm 0.00 in0.0 mm 0.22 in5.6 mm
04:42 AM 66.8°F19.3°C 63.7°F17.6°C 90% Calm Calm 7.0 mph11.3 kmh 29.78 in1008.5 mb 0.13 in3.3 mm 0.00 in0.0 mm 0.23 in5.8 mm
04:47 AM 66.8°F19.3°C 63.7°F17.6°C 90% Calm Calm -- 29.78 in1008.5 mb 0.09 in2.3 mm 0.00 in0.0 mm 0.23 in5.8 mm
04:52 AM 66.8°F19.3°C 63.7°F17.6°C 90% Calm Calm -- 29.79 in1008.8 mb 0.07 in1.8 mm 0.00 in0.0 mm 0.24 in6.1 mm
04:57 AM 66.9°F19.4°C 63.8°F17.7°C 90% Calm Calm -- 29.79 in1008.8 mb 0.07 in1.8 mm 0.00 in0.0 mm 0.24 in6.1 mm
05:02 AM 66.9°F19.4°C 63.8°F17.7°C 90% Calm Calm -- 29.78 in1008.5 mb 0.04 in1.0 mm 0.00 in0.0 mm 0.24 in6.1 mm
05:07 AM 66.9°F19.4°C 63.8°F17.7°C 90% Calm Calm -- 29.78 in1008.5 mb 0.00 in0.0 mm 0.00 in0.0 mm 0.24 in6.1 mm
05:12 AM 66.9°F19.4°C 63.8°F17.7°C 90% Calm Calm -- 29.79 in1008.8 mb 0.00 in0.0 mm 0.00 in0.0 mm 0.25 in6.4 mm
05:17 AM 66.9°F19.4°C 63.8°F17.7°C 90% Calm Calm -- 29.79 in1008.8 mb 0.00 in0.0 mm 0.00 in0.0 mm 0.25 in6.4 mm
05:22 AM 66.9°F19.4°C 63.8°F17.7°C 90% Calm Calm -- 29.79 in1008.8 mb 0.00 in0.0 mm 0.00 in0.0 mm 0.25 in6.4 mm
05:27 AM 66.9°F19.4°C 63.8°F17.7°C 90% Calm Calm -- 29.79 in1008.8 mb 0.00 in0.0 mm 0.00 in0.0 mm 0.25 in6.4 mm
05:32 AM 66.9°F19.4°C 63.8°F17.7°C 90% Calm Calm -- 29.79 in1008.8 mb 0.00 in0.0 mm 0.00 in0.0 mm 0.25 in6.4 mm
05:37 AM 67.0°F19.4°C 63.9°F17.7°C 90% Calm Calm -- 29.79 in1008.8 mb 0.00 in0.0 mm 0.00 in0.0 mm 0.25 in6.4 mm
05:42 AM 67.0°F19.4°C 63.9°F17.7°C 90% Calm Calm -- 29.79 in1008.8 mb 0.00 in0.0 mm 0.00 in0.0 mm 0.25 in6.4 mm
05:47 AM 67.0°F19.4°C 63.9°F17.7°C 90% Calm Calm -- 29.79 in1008.8 mb 0.00 in0.0 mm 0.00 in0.0 mm 0.25 in6.4 mm
05:52 AM 66.9°F19.4°C 63.8°F17.7°C 90% Calm Calm -- 29.79 in1008.8 mb 0.00 in0.0 mm 0.00 in0.0 mm 0.25 in6.4 mm
05:57 AM 66.9°F19.4°C 63.8°F17.7°C 90% Calm Calm -- 29.79 in1008.8 mb 0.00 in0.0 mm 0.00 in0.0 mm 0.25 in6.4 mm
06:02 AM 66.9°F19.4°C 63.8°F17.7°C 90% Calm Calm -- 29.79 in1008.8 mb 0.00 in0.0 mm 0.00 in0.0 mm 0.25 in6.4 mm
06:07 AM 67.0°F19.4°C 63.9°F17.7°C 90% Calm Calm -- 29.79 in1008.8 mb 0.00 in0.0 mm 0.00 in0.0 mm 0.25 in6.4 mm
06:12 AM 67.0°F19.4°C 63.9°F17.7°C 90% Calm Calm -- 29.79 in1008.8 mb 0.00 in0.0 mm 0.00 in0.0 mm 0.25 in6.4 mm
06:17 AM 67.0°F19.4°C 63.9°F17.7°C 90% Calm Calm -- 29.80 in1009.1 mb 0.00 in0.0 mm 0.00 in0.0 mm 0.25 in6.4 mm
06:22 AM 67.0°F19.4°C 63.9°F17.7°C 90% Calm Calm -- 29.80 in1009.1 mb 0.00 in0.0 mm 0.00 in0.0 mm 0.25 in6.4 mm
06:27 AM 67.0°F19.4°C 63.9°F17.7°C 90% Calm Calm -- 29.80 in1009.1 mb 0.00 in0.0 mm 0.00 in0.0 mm 0.25 in6.4 mm
06:32 AM 67.0°F19.4°C 63.9°F17.7°C 90% Calm Calm -- 29.79 in1008.8 mb 0.00 in0.0 mm 0.00 in0.0 mm 0.25 in6.4 mm
06:37 AM 67.0°F19.4°C 63.9°F17.7°C 90% Calm Calm -- 29.80 in1009.1 mb 0.00 in0.0 mm 0.00 in0.0 mm 0.25 in6.4 mm
06:42 AM 67.0°F19.4°C 63.9°F17.7°C 90% Calm Calm -- 29.79 in1008.8 mb 0.00 in0.0 mm 0.00 in0.0 mm 0.25 in6.4 mm
06:47 AM 67.0°F19.4°C 63.9°F17.7°C 90% Calm Calm -- 29.79 in1008.8 mb 0.00 in0.0 mm 0.00 in0.0 mm 0.25 in6.4 mm
06:52 AM 67.0°F19.4°C 63.9°F17.7°C 90% Calm Calm -- 29.79 in1008.8 mb 0.00 in0.0 mm 0.00 in0.0 mm 0.25 in6.4 mm
06:57 AM 67.0°F19.4°C 63.9°F17.7°C 90% Calm Calm -- 29.79 in1008.8 mb 0.00 in0.0 mm 0.00 in0.0 mm 0.25 in6.4 mm
07:02 AM 67.0°F19.4°C 63.9°F17.7°C 90% Calm Calm -- 29.79 in1008.8 mb 0.00 in0.0 mm 0.00 in0.0 mm 0.25 in6.4 mm
07:07 AM 67.1°F19.5°C 64.0°F17.8°C 90% Calm Calm -- 29.79 in1008.8 mb 0.00 in0.0 mm 0.00 in0.0 mm 0.25 in6.4 mm
07:12 AM 67.2°F19.6°C 64.1°F17.8°C 90% Calm Calm -- 29.80 in1009.1 mb 0.00 in0.0 mm 0.00 in0.0 mm 0.25 in6.4 mm
07:17 AM 67.2°F19.6°C 64.1°F17.8°C 90% Calm Calm -- 29.80 in1009.1 mb 0.00 in0.0 mm 0.00 in0.0 mm 0.25 in6.4 mm
07:22 AM 67.2°F19.6°C 64.1°F17.8°C 90% Calm Calm -- 29.80 in1009.1 mb 0.00 in0.0 mm 0.00 in0.0 mm 0.25 in6.4 mm
07:27 AM 67.4°F19.7°C 64.3°F17.9°C 90% Calm Calm -- 29.80 in1009.1 mb 0.00 in0.0 mm 0.00 in0.0 mm 0.25 in6.4 mm
07:32 AM 67.5°F19.7°C 64.4°F18.0°C 90% Calm Calm -- 29.80 in1009.1 mb 0.00 in0.0 mm 0.00 in0.0 mm 0.25 in6.4 mm
07:37 AM 67.8°F19.9°C 64.7°F18.2°C 90% Calm Calm -- 29.80 in1009.1 mb 0.00 in0.0 mm 0.00 in0.0 mm 0.25 in6.4 mm
07:42 AM 67.9°F19.9°C 64.8°F18.2°C 90% Calm Calm -- 29.80 in1009.1 mb 0.00 in0.0 mm 0.00 in0.0 mm 0.25 in6.4 mm
07:47 AM 67.8°F19.9°C 64.7°F18.2°C 90% Calm Calm -- 29.81 in1009.5 mb 0.00 in0.0 mm 0.00 in0.0 mm 0.25 in6.4 mm
07:52 AM 68.1°F20.1°C 65.0°F18.3°C 90% Calm Calm -- 29.81 in1009.5 mb 0.00 in0.0 mm 0.00 in0.0 mm 0.25 in6.4 mm
07:57 AM 68.0°F20.0°C 64.9°F18.3°C 90% Calm Calm -- 29.82 in1009.8 mb 0.00 in0.0 mm 0.00 in0.0 mm 0.25 in6.4 mm
08:02 AM 68.0°F20.0°C 64.9°F18.3°C 90% Calm Calm -- 29.82 in1009.8 mb 0.00 in0.0 mm 0.00 in0.0 mm 0.25 in6.4 mm
08:07 AM 68.0°F20.0°C 64.9°F18.3°C 90% Calm Calm -- 29.82 in1009.8 mb 0.00 in0.0 mm 0.00 in0.0 mm 0.25 in6.4 mm
08:12 AM 68.0°F20.0°C 64.9°F18.3°C 90% Calm Calm -- 29.82 in1009.8 mb 0.00 in0.0 mm 0.00 in0.0 mm 0.25 in6.4 mm
08:17 AM 68.1°F20.1°C 65.0°F18.3°C 90% 2.0 mph WSW3.2 kmh WSW 9.0 mph14.5 kmh 29.82 in1009.8 mb 0.00 in0.0 mm 0.00 in0.0 mm 0.25 in6.4 mm
08:22 AM 68.1°F20.1°C 65.0°F18.3°C 90% Calm Calm 3.0 mph4.8 kmh 29.83 in1010.2 mb 0.00 in0.0 mm 0.00 in0.0 mm 0.25 in6.4 mm
08:27 AM 68.1°F20.1°C 65.0°F18.3°C 90% Calm Calm 7.0 mph11.3 kmh 29.83 in1010.2 mb 0.00 in0.0 mm 0.00 in0.0 mm 0.25 in6.4 mm
08:32 AM 68.0°F20.0°C 64.9°F18.3°C 90% 2.0 mph SW3.2 kmh SW 7.0 mph11.3 kmh 29.83 in1010.2 mb 0.00 in0.0 mm 0.00 in0.0 mm 0.25 in6.4 mm
08:37 AM 68.0°F20.0°C 64.9°F18.3°C 90% 3.0 mph WSW4.8 kmh WSW 10.0 mph16.1 kmh 29.84 in1010.5 mb 0.00 in0.0 mm 0.00 in0.0 mm 0.25 in6.4 mm
08:42 AM 68.0°F20.0°C 64.9°F18.3°C 90% 2.0 mph WSW3.2 kmh WSW 10.0 mph16.1 kmh 29.84 in1010.5 mb 0.00 in0.0 mm 0.00 in0.0 mm 0.25 in6.4 mm
08:47 AM 68.0°F20.0°C 64.9°F18.3°C 90% Calm Calm 10.0 mph16.1 kmh 29.84 in1010.5 mb 0.00 in0.0 mm 0.00 in0.0 mm 0.25 in6.4 mm
08:52 AM 68.2°F20.1°C 65.1°F18.4°C 90% 3.0 mph WSW4.8 kmh WSW 10.0 mph16.1 kmh 29.84 in1010.5 mb 0.00 in0.0 mm 0.00 in0.0 mm 0.25 in6.4 mm
08:57 AM 68.2°F20.1°C 65.1°F18.4°C 90% 3.0 mph WSW4.8 kmh WSW 12.0 mph19.3 kmh 29.84 in1010.5 mb 0.00 in0.0 mm 0.00 in0.0 mm 0.25 in6.4 mm
09:02 AM 68.3°F20.2°C 65.2°F18.4°C 90% 6.0 mph WSW9.7 kmh WSW 12.0 mph19.3 kmh 29.84 in1010.5 mb 0.00 in0.0 mm 0.00 in0.0 mm 0.25 in6.4 mm
09:07 AM 68.3°F20.2°C 65.2°F18.4°C 90% 3.0 mph W4.8 kmh W 12.0 mph19.3 kmh 29.84 in1010.5 mb 0.00 in0.0 mm 0.00 in0.0 mm 0.25 in6.4 mm
09:12 AM 68.4°F20.2°C 65.3°F18.5°C 90% 4.0 mph WSW6.4 kmh WSW 12.0 mph19.3 kmh 29.85 in1010.8 mb 0.00 in0.0 mm 0.00 in0.0 mm 0.25 in6.4 mm
09:17 AM 68.4°F20.2°C 65.3°F18.5°C 90% 2.0 mph WSW3.2 kmh WSW 8.0 mph12.9 kmh 29.85 in1010.8 mb 0.00 in0.0 mm 0.00 in0.0 mm 0.25 in6.4 mm
09:22 AM 68.6°F20.3°C 65.5°F18.6°C 90% Calm Calm -- 29.85 in1010.8 mb 0.00 in0.0 mm 0.00 in0.0 mm 0.25 in6.4 mm
09:27 AM 68.6°F20.3°C 65.5°F18.6°C 90% Calm Calm -- 29.85 in1010.8 mb 0.00 in0.0 mm 0.00 in0.0 mm 0.25 in6.4 mm
09:32 AM 68.8°F20.4°C 65.7°F18.7°C 90% Calm Calm -- 29.85 in1010.8 mb 0.00 in0.0 mm 0.00 in0.0 mm 0.25 in6.4 mm
09:37 AM 68.7°F20.4°C 65.6°F18.7°C 90% Calm Calm -- 29.85 in1010.8 mb 0.00 in0.0 mm 0.00 in0.0 mm 0.25 in6.4 mm
09:42 AM 68.7°F20.4°C 65.6°F18.7°C 90% Calm Calm 4.0 mph6.4 kmh 29.85 in1010.8 mb 0.00 in0.0 mm 0.00 in0.0 mm 0.25 in6.4 mm
09:47 AM 68.7°F20.4°C 65.6°F18.7°C 90% Calm Calm 5.0 mph8.0 kmh 29.85 in1010.8 mb 0.00 in0.0 mm 0.00 in0.0 mm 0.25 in6.4 mm
09:52 AM 68.8°F20.4°C 65.7°F18.7°C 90% Calm Calm 2.0 mph3.2 kmh 29.85 in1010.8 mb 0.00 in0.0 mm 0.00 in0.0 mm 0.25 in6.4 mm
09:57 AM 69.0°F20.6°C 65.9°F18.8°C 90% Calm Calm 3.0 mph4.8 kmh 29.85 in1010.8 mb 0.00 in0.0 mm 0.00 in0.0 mm 0.25 in6.4 mm
10:02 AM 69.3°F20.7°C 66.2°F19.0°C 90% 3.0 mph WSW4.8 kmh WSW 5.0 mph8.0 kmh 29.85 in1010.8 mb 0.00 in0.0 mm 0.00 in0.0 mm 0.25 in6.4 mm
10:07 AM 69.4°F20.8°C 66.3°F19.1°C 90% Calm Calm -- 29.86 in1011.2 mb 0.00 in0.0 mm 0.00 in0.0 mm 0.25 in6.4 mm
10:12 AM 69.7°F20.9°C 66.6°F19.2°C 90% Calm Calm 1.0 mph1.6 kmh 29.86 in1011.2 mb 0.00 in0.0 mm 0.00 in0.0 mm 0.25 in6.4 mm
10:17 AM 69.8°F21.0°C 66.7°F19.3°C 90% 4.0 mph WSW6.4 kmh WSW 4.0 mph6.4 kmh 29.86 in1011.2 mb 0.00 in0.0 mm 0.00 in0.0 mm 0.25 in6.4 mm
10:22 AM 69.8°F21.0°C 66.7°F19.3°C 90% Calm Calm -- 29.85 in1010.8 mb 0.00 in0.0 mm 0.00 in0.0 mm 0.25 in6.4 mm
10:27 AM 70.3°F21.3°C 67.2°F19.6°C 90% Calm Calm -- 29.85 in1010.8 mb 0.00 in0.0 mm 0.00 in0.0 mm 0.25 in6.4 mm
10:32 AM 71.3°F21.8°C 68.1°F20.1°C 90% Calm Calm -- 29.86 in1011.2 mb 0.00 in0.0 mm 0.00 in0.0 mm 0.25 in6.4 mm
10:37 AM 71.6°F22.0°C 68.4°F20.2°C 90% 4.0 mph WSW6.4 kmh WSW 9.0 mph14.5 kmh 29.86 in1011.2 mb 0.00 in0.0 mm 0.00 in0.0 mm 0.25 in6.4 mm
10:42 AM 71.5°F21.9°C 68.3°F20.2°C 90% Calm Calm 9.0 mph14.5 kmh 29.86 in1011.2 mb 0.00 in0.0 mm 0.00 in0.0 mm 0.25 in6.4 mm
10:47 AM 71.9°F22.2°C 68.7°F20.4°C 90% 5.0 mph W8.0 kmh W 9.0 mph14.5 kmh 29.86 in1011.2 mb 0.00 in0.0 mm 0.00 in0.0 mm 0.25 in6.4 mm
10:52 AM 71.8°F22.1°C 68.3°F20.2°C 89% 3.0 mph WSW4.8 kmh WSW 9.0 mph14.5 kmh 29.86 in1011.2 mb 0.00 in0.0 mm 0.00 in0.0 mm 0.25 in6.4 mm
10:57 AM 71.4°F21.9°C 67.9°F19.9°C 89% Calm Calm 7.0 mph11.3 kmh 29.86 in1011.2 mb 0.00 in0.0 mm 0.00 in0.0 mm 0.25 in6.4 mm
11:02 AM 71.4°F21.9°C 67.9°F19.9°C 89% Calm Calm 7.0 mph11.3 kmh 29.86 in1011.2 mb 0.00 in0.0 mm 0.00 in0.0 mm 0.25 in6.4 mm
11:07 AM 71.4°F21.9°C 67.9°F19.9°C 89% 1.0 mph WSW1.6 kmh WSW 4.0 mph6.4 kmh 29.86 in1011.2 mb 0.00 in0.0 mm 0.00 in0.0 mm 0.25 in6.4 mm
11:12 AM 71.5°F21.9°C 68.0°F20.0°C 89% Calm Calm 7.0 mph11.3 kmh 29.86 in1011.2 mb 0.00 in0.0 mm 0.00 in0.0 mm 0.25 in6.4 mm
11:17 AM 71.6°F22.0°C 68.1°F20.1°C 89% 7.0 mph WSW11.3 kmh WSW 8.0 mph12.9 kmh 29.86 in1011.2 mb 0.00 in0.0 mm 0.00 in0.0 mm 0.25 in6.4 mm
11:22 AM 71.6°F22.0°C 68.1°F20.1°C 89% Calm Calm 6.0 mph9.7 kmh 29.87 in1011.5 mb 0.00 in0.0 mm 0.00 in0.0 mm 0.25 in6.4 mm
11:27 AM 72.0°F22.2°C 68.5°F20.3°C 89% 1.0 mph WSW1.6 kmh WSW 6.0 mph9.7 kmh 29.87 in1011.5 mb 0.00 in0.0 mm 0.00 in0.0 mm 0.25 in6.4 mm
11:32 AM 72.4°F22.4°C 68.9°F20.5°C 89% 2.0 mph WSW3.2 kmh WSW 7.0 mph11.3 kmh 29.87 in1011.5 mb 0.00 in0.0 mm 0.00 in0.0 mm 0.25 in6.4 mm
11:37 AM 72.7°F22.6°C 68.8°F20.4°C 88% 6.0 mph SW9.7 kmh SW 9.0 mph14.5 kmh 29.87 in1011.5 mb 0.00 in0.0 mm 0.00 in0.0 mm 0.25 in6.4 mm
11:42 AM 73.7°F23.2°C 69.8°F21.0°C 88% 2.0 mph WSW3.2 kmh WSW 9.0 mph14.5 kmh 29.87 in1011.5 mb 0.00 in0.0 mm 0.00 in0.0 mm 0.25 in6.4 mm
11:47 AM 74.9°F23.8°C 71.0°F21.7°C 88% Calm Calm 5.0 mph8.0 kmh 29.87 in1011.5 mb 0.00 in0.0 mm 0.00 in0.0 mm 0.25 in6.4 mm
11:52 AM 74.9°F23.8°C 70.3°F21.3°C 86% 6.0 mph WSW9.7 kmh WSW 10.0 mph16.1 kmh 29.86 in1011.2 mb 0.00 in0.0 mm 0.00 in0.0 mm 0.25 in6.4 mm
11:57 AM 75.4°F24.1°C 70.1°F21.2°C 84% 4.0 mph WSW6.4 kmh WSW 11.0 mph17.7 kmh 29.87 in1011.5 mb 0.00 in0.0 mm 0.00 in0.0 mm 0.25 in6.4 mm
12:02 PM 75.6°F24.2°C 71.0°F21.7°C 86% 8.0 mph WSW12.9 kmh WSW 11.0 mph17.7 kmh 29.87 in1011.5 mb 0.00 in0.0 mm 0.00 in0.0 mm 0.25 in6.4 mm
12:07 PM 75.4°F24.1°C 70.4°F21.3°C 85% 5.0 mph SW8.0 kmh SW 11.0 mph17.7 kmh 29.87 in1011.5 mb 0.00 in0.0 mm 0.00 in0.0 mm 0.25 in6.4 mm
12:12 PM 76.3°F24.6°C 71.0°F21.7°C 84% 3.0 mph WSW4.8 kmh WSW 14.0 mph22.5 kmh 29.87 in1011.5 mb 0.00 in0.0 mm 0.00 in0.0 mm 0.25 in6.4 mm
12:17 PM 76.9°F24.9°C 71.2°F21.8°C 83% Calm Calm -- 29.86 in1011.2 mb 0.00 in0.0 mm 0.00 in0.0 mm 0.25 in6.4 mm
12:22 PM 76.7°F24.8°C 71.0°F21.7°C 83% 2.0 mph SW3.2 kmh SW 10.0 mph16.1 kmh 29.86 in1011.2 mb 0.00 in0.0 mm 0.00 in0.0 mm 0.25 in6.4 mm
12:27 PM 76.7°F24.8°C 70.6°F21.4°C 82% 5.0 mph WNW8.0 kmh WNW 10.0 mph16.1 kmh 29.86 in1011.2 mb 0.00 in0.0 mm 0.00 in0.0 mm 0.25 in6.4 mm
12:32 PM 76.5°F24.7°C 70.8°F21.6°C 83% 5.0 mph W8.0 kmh W 14.0 mph22.5 kmh 29.86 in1011.2 mb 0.00 in0.0 mm 0.00 in0.0 mm 0.25 in6.4 mm
12:37 PM 77.1°F25.1°C 71.0°F21.7°C 82% Calm Calm 14.0 mph22.5 kmh 29.86 in1011.2 mb 0.00 in0.0 mm 0.00 in0.0 mm 0.25 in6.4 mm
12:42 PM 78.1°F25.6°C 72.4°F22.4°C 83% 5.0 mph WSW8.0 kmh WSW 11.0 mph17.7 kmh 29.86 in1011.2 mb 0.00 in0.0 mm 0.00 in0.0 mm 0.25 in6.4 mm
12:47 PM 77.4°F25.2°C 70.2°F21.2°C 79% 1.0 mph WNW1.6 kmh WNW 11.0 mph17.7 kmh 29.86 in1011.2 mb 0.00 in0.0 mm 0.00 in0.0 mm 0.25 in6.4 mm
12:52 PM 78.4°F25.8°C 71.9°F22.2°C 81% 5.0 mph W8.0 kmh W 11.0 mph17.7 kmh 29.86 in1011.2 mb 0.00 in0.0 mm 0.00 in0.0 mm 0.25 in6.4 mm
12:57 PM 78.1°F25.6°C 71.2°F21.8°C 80% Calm Calm 11.0 mph17.7 kmh 29.86 in1011.2 mb 0.00 in0.0 mm 0.00 in0.0 mm 0.25 in6.4 mm
01:02 PM 79.0°F26.1°C 72.1°F22.3°C 80% Calm Calm 10.0 mph16.1 kmh 29.86 in1011.2 mb 0.00 in0.0 mm 0.00 in0.0 mm 0.25 in6.4 mm
01:07 PM 79.2°F26.2°C 70.8°F21.6°C 76% 5.0 mph W8.0 kmh W 10.0 mph16.1 kmh 29.86 in1011.2 mb 0.00 in0.0 mm 0.00 in0.0 mm 0.25 in6.4 mm
01:12 PM 78.2°F25.7°C 70.2°F21.2°C 77% 2.0 mph WSW3.2 kmh WSW 9.0 mph14.5 kmh 29.86 in1011.2 mb 0.00 in0.0 mm 0.00 in0.0 mm 0.25 in6.4 mm
01:17 PM 77.8°F25.4°C 70.2°F21.2°C 78% 6.0 mph WSW9.7 kmh WSW 9.0 mph14.5 kmh 29.86 in1011.2 mb 0.00 in0.0 mm 0.00 in0.0 mm 0.25 in6.4 mm
01:22 PM 78.3°F25.7°C 69.5°F20.8°C 75% Calm Calm 9.0 mph14.5 kmh 29.86 in1011.2 mb 0.00 in0.0 mm 0.00 in0.0 mm 0.25 in6.4 mm
01:27 PM 78.6°F25.9°C 70.6°F21.4°C 77% Calm Calm 9.0 mph14.5 kmh 29.86 in1011.2 mb 0.00 in0.0 mm 0.00 in0.0 mm 0.25 in6.4 mm
01:32 PM 78.3°F25.7°C 68.3°F20.2°C 72% Calm Calm 9.0 mph14.5 kmh 29.86 in1011.2 mb 0.00 in0.0 mm 0.00 in0.0 mm 0.25 in6.4 mm
01:37 PM 78.2°F25.7°C 69.8°F21.0°C 76% 1.0 mph WSW1.6 kmh WSW 14.0 mph22.5 kmh 29.86 in1011.2 mb 0.00 in0.0 mm 0.00 in0.0 mm 0.25 in6.4 mm
01:42 PM 78.4°F25.8°C 70.0°F21.1°C 76% 7.0 mph WNW11.3 kmh WNW 14.0 mph22.5 kmh 29.86 in1011.2 mb 0.00 in0.0 mm 0.00 in0.0 mm 0.25 in6.4 mm
01:47 PM 79.2°F26.2°C 69.9°F21.1°C 74% 5.0 mph WNW8.0 kmh WNW 14.0 mph22.5 kmh 29.86 in1011.2 mb 0.00 in0.0 mm 0.00 in0.0 mm 0.25 in6.4 mm
01:52 PM 79.7°F26.5°C 70.0°F21.1°C 73% 5.0 mph WSW8.0 kmh WSW 14.0 mph22.5 kmh 29.86 in1011.2 mb 0.00 in0.0 mm 0.00 in0.0 mm 0.25 in6.4 mm
01:57 PM 79.4°F26.3°C 68.9°F20.5°C 71% 4.0 mph W6.4 kmh W 9.0 mph14.5 kmh 29.86 in1011.2 mb 0.00 in0.0 mm 0.00 in0.0 mm 0.25 in6.4 mm
02:02 PM 78.5°F25.8°C 68.5°F20.3°C 72% 5.0 mph WSW8.0 kmh WSW 12.0 mph19.3 kmh 29.86 in1011.2 mb 0.00 in0.0 mm 0.00 in0.0 mm 0.25 in6.4 mm
02:07 PM 78.7°F25.9°C 70.3°F21.3°C 76% 3.0 mph WSW4.8 kmh WSW 12.0 mph19.3 kmh 29.86 in1011.2 mb 0.00 in0.0 mm 0.00 in0.0 mm 0.25 in6.4 mm
02:12 PM 80.6°F27.0°C 72.1°F22.3°C 76% 4.0 mph WSW6.4 kmh WSW 12.0 mph19.3 kmh 29.86 in1011.2 mb 0.00 in0.0 mm 0.00 in0.0 mm 0.25 in6.4 mm
02:17 PM 81.0°F27.2°C 71.3°F21.8°C 73% 1.0 mph WSW1.6 kmh WSW 12.0 mph19.3 kmh 29.86 in1011.2 mb 0.00 in0.0 mm 0.00 in0.0 mm 0.25 in6.4 mm
02:22 PM 81.3°F27.4°C 68.5°F20.3°C 66% 4.0 mph WSW6.4 kmh WSW 10.0 mph16.1 kmh 29.85 in1010.8 mb 0.00 in0.0 mm 0.00 in0.0 mm 0.25 in6.4 mm
02:27 PM 80.6°F27.0°C 69.2°F20.7°C 69% 3.0 mph WSW4.8 kmh WSW 11.0 mph17.7 kmh 29.85 in1010.8 mb 0.00 in0.0 mm 0.00 in0.0 mm 0.25 in6.4 mm
02:32 PM 81.9°F27.7°C 70.4°F21.3°C 69% 7.0 mph W11.3 kmh W 12.0 mph19.3 kmh 29.86 in1011.2 mb 0.00 in0.0 mm 0.00 in0.0 mm 0.25 in6.4 mm
02:37 PM 81.2°F27.3°C 67.5°F19.7°C 64% 7.0 mph W11.3 kmh W 12.0 mph19.3 kmh 29.86 in1011.2 mb 0.00 in0.0 mm 0.00 in0.0 mm 0.25 in6.4 mm
02:42 PM 79.7°F26.5°C 66.1°F18.9°C 64% 2.0 mph SW3.2 kmh SW 14.0 mph22.5 kmh 29.86 in1011.2 mb 0.00 in0.0 mm 0.00 in0.0 mm 0.25 in6.4 mm
02:47 PM 79.4°F26.3°C 67.6°F19.8°C 68% Calm Calm 14.0 mph22.5 kmh 29.86 in1011.2 mb 0.00 in0.0 mm 0.00 in0.0 mm 0.25 in6.4 mm
02:52 PM 80.6°F27.0°C 68.7°F20.4°C 68% 5.0 mph WSW8.0 kmh WSW 14.0 mph22.5 kmh 29.86 in1011.2 mb 0.00 in0.0 mm 0.00 in0.0 mm 0.25 in6.4 mm
02:57 PM 80.7°F27.1°C 69.3°F20.7°C 69% 5.0 mph WSW8.0 kmh WSW 14.0 mph22.5 kmh 29.86 in1011.2 mb 0.00 in0.0 mm 0.00 in0.0 mm 0.25 in6.4 mm
03:02 PM 81.0°F27.2°C 69.1°F20.6°C 68% 6.0 mph SW9.7 kmh SW 14.0 mph22.5 kmh 29.85 in1010.8 mb 0.00 in0.0 mm 0.00 in0.0 mm 0.25 in6.4 mm
03:07 PM 82.0°F27.8°C 68.2°F20.1°C 64% 5.0 mph WNW8.0 kmh WNW 14.0 mph22.5 kmh 29.86 in1011.2 mb 0.00 in0.0 mm 0.00 in0.0 mm 0.25 in6.4 mm
03:12 PM 82.3°F27.9°C 68.5°F20.3°C 64% 6.0 mph W9.7 kmh W 14.0 mph22.5 kmh 29.86 in1011.2 mb 0.00 in0.0 mm 0.00 in0.0 mm 0.25 in6.4 mm
03:17 PM 80.5°F26.9°C 67.3°F19.6°C 65% 3.0 mph WSW4.8 kmh WSW 11.0 mph17.7 kmh 29.86 in1011.2 mb 0.00 in0.0 mm 0.00 in0.0 mm 0.25 in6.4 mm
03:22 PM 81.4°F27.4°C 67.2°F19.6°C 63% 4.0 mph W6.4 kmh W 11.0 mph17.7 kmh 29.85 in1010.8 mb 0.00 in0.0 mm 0.00 in0.0 mm 0.25 in6.4 mm
03:27 PM 81.5°F27.5°C 70.0°F21.1°C 69% 6.0 mph WSW9.7 kmh WSW 11.0 mph17.7 kmh 29.85 in1010.8 mb 0.00 in0.0 mm 0.00 in0.0 mm 0.25 in6.4 mm
03:32 PM 81.5°F27.5°C 68.2°F20.1°C 65% 5.0 mph WSW8.0 kmh WSW 11.0 mph17.7 kmh 29.86 in1011.2 mb 0.00 in0.0 mm 0.00 in0.0 mm 0.25 in6.4 mm
03:37 PM 80.6°F27.0°C 66.9°F19.4°C 64% 2.0 mph WSW3.2 kmh WSW 10.0 mph16.1 kmh 29.86 in1011.2 mb 0.00 in0.0 mm 0.00 in0.0 mm 0.25 in6.4 mm
03:42 PM 80.5°F26.9°C 66.8°F19.3°C 64% 11.0 mph W17.7 kmh W 12.0 mph19.3 kmh 29.86 in1011.2 mb 0.00 in0.0 mm 0.00 in0.0 mm 0.25 in6.4 mm
03:47 PM 80.6°F27.0°C 65.0°F18.3°C 60% 4.0 mph W6.4 kmh W 12.0 mph19.3 kmh 29.85 in1010.8 mb 0.00 in0.0 mm 0.00 in0.0 mm 0.25 in6.4 mm
03:52 PM 80.3°F26.8°C 65.7°F18.7°C 62% 6.0 mph WSW9.7 kmh WSW 12.0 mph19.3 kmh 29.86 in1011.2 mb 0.00 in0.0 mm 0.00 in0.0 mm 0.25 in6.4 mm
03:57 PM 80.1°F26.7°C 66.0°F18.9°C 63% Calm Calm 12.0 mph19.3 kmh 29.86 in1011.2 mb 0.00 in0.0 mm 0.00 in0.0 mm 0.25 in6.4 mm
04:02 PM 80.2°F26.8°C 66.5°F19.2°C 64% 11.0 mph SW17.7 kmh SW 13.0 mph20.9 kmh 29.86 in1011.2 mb 0.00 in0.0 mm 0.00 in0.0 mm 0.25 in6.4 mm
04:07 PM 80.2°F26.8°C 65.6°F18.7°C 62% 9.0 mph SW14.5 kmh SW 13.0 mph20.9 kmh 29.86 in1011.2 mb 0.00 in0.0 mm 0.00 in0.0 mm 0.25 in6.4 mm
04:12 PM 79.9°F26.6°C 65.8°F18.8°C 63% 5.0 mph SW8.0 kmh SW 13.0 mph20.9 kmh 29.86 in1011.2 mb 0.00 in0.0 mm 0.00 in0.0 mm 0.25 in6.4 mm
04:17 PM 80.3°F26.8°C 66.2°F19.0°C 63% 5.0 mph WNW8.0 kmh WNW 13.0 mph20.9 kmh 29.85 in1010.8 mb 0.00 in0.0 mm 0.00 in0.0 mm 0.25 in6.4 mm
04:22 PM 80.0°F26.7°C 64.4°F18.0°C 60% 10.0 mph W16.1 kmh W 13.0 mph20.9 kmh 29.85 in1010.8 mb 0.00 in0.0 mm 0.00 in0.0 mm 0.25 in6.4 mm
04:27 PM 79.7°F26.5°C 63.7°F17.6°C 59% 9.0 mph W14.5 kmh W 17.0 mph27.4 kmh 29.85 in1010.8 mb 0.00 in0.0 mm 0.00 in0.0 mm 0.25 in6.4 mm
04:32 PM 79.7°F26.5°C 65.1°F18.4°C 62% 8.0 mph WSW12.9 kmh WSW 17.0 mph27.4 kmh 29.85 in1010.8 mb 0.00 in0.0 mm 0.00 in0.0 mm 0.25 in6.4 mm
04:37 PM 79.8°F26.6°C 64.2°F17.9°C 60% 4.0 mph WSW6.4 kmh WSW 17.0 mph27.4 kmh 29.85 in1010.8 mb 0.00 in0.0 mm 0.00 in0.0 mm 0.25 in6.4 mm
04:42 PM 79.9°F26.6°C 65.3°F18.5°C 62% 4.0 mph WSW6.4 kmh WSW 17.0 mph27.4 kmh 29.85 in1010.8 mb 0.00 in0.0 mm 0.00 in0.0 mm 0.25 in6.4 mm
04:47 PM 80.2°F26.8°C 65.6°F18.7°C 62% 10.0 mph W16.1 kmh W 12.0 mph19.3 kmh 29.85 in1010.8 mb 0.00 in0.0 mm 0.00 in0.0 mm 0.25 in6.4 mm
04:52 PM 80.4°F26.9°C 65.8°F18.8°C 62% 3.0 mph WSW4.8 kmh WSW 13.0 mph20.9 kmh 29.85 in1010.8 mb 0.00 in0.0 mm 0.00 in0.0 mm 0.25 in6.4 mm
04:57 PM 80.6°F27.0°C 66.0°F18.9°C 62% 3.0 mph W4.8 kmh W 13.0 mph20.9 kmh 29.85 in1010.8 mb 0.00 in0.0 mm 0.00 in0.0 mm 0.25 in6.4 mm
05:02 PM 80.6°F27.0°C 65.5°F18.6°C 61% 12.0 mph WSW19.3 kmh WSW 13.0 mph20.9 kmh 29.85 in1010.8 mb 0.00 in0.0 mm 0.00 in0.0 mm 0.25 in6.4 mm
05:07 PM 80.3°F26.8°C 65.2°F18.4°C 61% 5.0 mph WSW8.0 kmh WSW 13.0 mph20.9 kmh 29.85 in1010.8 mb 0.00 in0.0 mm 0.00 in0.0 mm 0.25 in6.4 mm
05:12 PM 79.3°F26.3°C 65.2°F18.4°C 63% 13.0 mph WSW20.9 kmh WSW 13.0 mph20.9 kmh 29.85 in1010.8 mb 0.00 in0.0 mm 0.00 in0.0 mm 0.25 in6.4 mm
05:17 PM 79.2°F26.2°C 65.6°F18.7°C 64% 6.0 mph WSW9.7 kmh WSW 13.0 mph20.9 kmh 29.85 in1010.8 mb 0.00 in0.0 mm 0.00 in0.0 mm 0.25 in6.4 mm
05:22 PM 79.1°F26.2°C 65.5°F18.6°C 64% 5.0 mph SW8.0 kmh SW 13.0 mph20.9 kmh 29.85 in1010.8 mb 0.00 in0.0 mm 0.00 in0.0 mm 0.25 in6.4 mm
05:27 PM 78.8°F26.0°C 65.2°F18.4°C 64% 8.0 mph WSW12.9 kmh WSW 14.0 mph22.5 kmh 29.85 in1010.8 mb 0.00 in0.0 mm 0.00 in0.0 mm 0.25 in6.4 mm
05:32 PM 78.8°F26.0°C 66.1°F18.9°C 66% 4.0 mph W6.4 kmh W 14.0 mph22.5 kmh 29.86 in1011.2 mb 0.00 in0.0 mm 0.00 in0.0 mm 0.25 in6.4 mm
05:37 PM 79.0°F26.1°C 65.4°F18.6°C 64% 2.0 mph WSW3.2 kmh WSW 14.0 mph22.5 kmh 29.86 in1011.2 mb 0.00 in0.0 mm 0.00 in0.0 mm 0.25 in6.4 mm
05:42 PM 78.8°F26.0°C 65.7°F18.7°C 65% Calm Calm 14.0 mph22.5 kmh 29.86 in1011.2 mb 0.00 in0.0 mm 0.00 in0.0 mm 0.25 in6.4 mm
05:47 PM 79.0°F26.1°C 66.8°F19.3°C 67% 6.0 mph W9.7 kmh W 8.0 mph12.9 kmh 29.86 in1011.2 mb 0.00 in0.0 mm 0.00 in0.0 mm 0.25 in6.4 mm
05:52 PM 78.9°F26.1°C 65.8°F18.8°C 65% 5.0 mph WSW8.0 kmh WSW 11.0 mph17.7 kmh 29.85 in1010.8 mb 0.00 in0.0 mm 0.00 in0.0 mm 0.25 in6.4 mm
05:57 PM 78.8°F26.0°C 66.1°F18.9°C 66% Calm Calm 11.0 mph17.7 kmh 29.85 in1010.8 mb 0.00 in0.0 mm 0.00 in0.0 mm 0.25 in6.4 mm
06:02 PM 78.8°F26.0°C 65.7°F18.7°C 65% 2.0 mph W3.2 kmh W 9.0 mph14.5 kmh 29.85 in1010.8 mb 0.00 in0.0 mm 0.00 in0.0 mm 0.25 in6.4 mm
06:07 PM 79.1°F26.2°C 65.5°F18.6°C 64% 6.0 mph WSW9.7 kmh WSW 9.0 mph14.5 kmh 29.85 in1010.8 mb 0.00 in0.0 mm 0.00 in0.0 mm 0.25 in6.4 mm
06:12 PM 79.1°F26.2°C 65.5°F18.6°C 64% 2.0 mph WSW3.2 kmh WSW 12.0 mph19.3 kmh 29.85 in1010.8 mb 0.00 in0.0 mm 0.00 in0.0 mm 0.25 in6.4 mm
06:17 PM 79.1°F26.2°C 66.0°F18.9°C 65% Calm Calm -- 29.85 in1010.8 mb 0.00 in0.0 mm 0.00 in0.0 mm 0.25 in6.4 mm
06:22 PM 79.2°F26.2°C 66.1°F18.9°C 65% 4.0 mph WSW6.4 kmh WSW 10.0 mph16.1 kmh 29.85 in1010.8 mb 0.00 in0.0 mm 0.00 in0.0 mm 0.25 in6.4 mm
06:27 PM 79.1°F26.2°C 66.0°F18.9°C 65% 4.0 mph WNW6.4 kmh WNW 14.0 mph22.5 kmh 29.85 in1010.8 mb 0.00 in0.0 mm 0.00 in0.0 mm 0.25 in6.4 mm
06:32 PM 79.3°F26.3°C 65.2°F18.4°C 63% 6.0 mph WSW9.7 kmh WSW 14.0 mph22.5 kmh 29.85 in1010.8 mb 0.00 in0.0 mm 0.00 in0.0 mm 0.25 in6.4 mm
06:37 PM 79.4°F26.3°C 64.8°F18.2°C 62% 2.0 mph WNW3.2 kmh WNW 14.0 mph22.5 kmh 29.86 in1011.2 mb 0.00 in0.0 mm 0.00 in0.0 mm 0.25 in6.4 mm
06:42 PM 79.4°F26.3°C 65.8°F18.8°C 64% Calm Calm 14.0 mph22.5 kmh 29.86 in1011.2 mb 0.00 in0.0 mm 0.00 in0.0 mm 0.25 in6.4 mm
06:47 PM 79.3°F26.3°C 65.7°F18.7°C 64% Calm Calm -- 29.86 in1011.2 mb 0.00 in0.0 mm 0.00 in0.0 mm 0.25 in6.4 mm
06:52 PM 79.2°F26.2°C 64.7°F18.2°C 62% 4.0 mph WNW6.4 kmh WNW 5.0 mph8.0 kmh 29.86 in1011.2 mb 0.00 in0.0 mm 0.00 in0.0 mm 0.25 in6.4 mm
06:57 PM 79.3°F26.3°C 64.7°F18.2°C 62% 4.0 mph WSW6.4 kmh WSW 6.0 mph9.7 kmh 29.86 in1011.2 mb 0.00 in0.0 mm 0.00 in0.0 mm 0.25 in6.4 mm
07:02 PM 79.2°F26.2°C 64.7°F18.2°C 62% 5.0 mph NW8.0 kmh NW 10.0 mph16.1 kmh 29.86 in1011.2 mb 0.00 in0.0 mm 0.00 in0.0 mm 0.25 in6.4 mm
07:07 PM 79.2°F26.2°C 64.2°F17.9°C 61% 3.0 mph W4.8 kmh W 10.0 mph16.1 kmh 29.87 in1011.5 mb 0.00 in0.0 mm 0.00 in0.0 mm 0.25 in6.4 mm
07:12 PM 79.2°F26.2°C 63.7°F17.6°C 60% Calm Calm 4.0 mph6.4 kmh 29.87 in1011.5 mb 0.00 in0.0 mm 0.00 in0.0 mm 0.25 in6.4 mm
07:17 PM 79.2°F26.2°C 63.7°F17.6°C 60% Calm Calm 7.0 mph11.3 kmh 29.87 in1011.5 mb 0.00 in0.0 mm 0.00 in0.0 mm 0.25 in6.4 mm
07:22 PM 79.2°F26.2°C 63.2°F17.3°C 59% Calm Calm 9.0 mph14.5 kmh 29.87 in1011.5 mb 0.00 in0.0 mm 0.00 in0.0 mm 0.25 in6.4 mm
07:27 PM 79.0°F26.1°C 64.5°F18.1°C 62% Calm Calm 2.0 mph3.2 kmh 29.87 in1011.5 mb 0.00 in0.0 mm 0.00 in0.0 mm 0.25 in6.4 mm
07:32 PM 78.9°F26.1°C 63.4°F17.4°C 60% Calm Calm 7.0 mph11.3 kmh 29.88 in1011.9 mb 0.00 in0.0 mm 0.00 in0.0 mm 0.25 in6.4 mm
07:37 PM 78.8°F26.0°C 62.8°F17.1°C 59% 3.0 mph W4.8 kmh W 8.0 mph12.9 kmh 29.87 in1011.5 mb 0.00 in0.0 mm 0.00 in0.0 mm 0.25 in6.4 mm
07:42 PM 78.7°F25.9°C 63.2°F17.3°C 60% Calm Calm 5.0 mph8.0 kmh 29.88 in1011.9 mb 0.00 in0.0 mm 0.00 in0.0 mm 0.25 in6.4 mm
07:47 PM 78.5°F25.8°C 63.5°F17.5°C 61% Calm Calm -- 29.88 in1011.9 mb 0.00 in0.0 mm 0.00 in0.0 mm 0.25 in6.4 mm
07:52 PM 78.3°F25.7°C 63.3°F17.4°C 61% 2.0 mph WSW3.2 kmh WSW 2.0 mph3.2 kmh 29.88 in1011.9 mb 0.00 in0.0 mm 0.00 in0.0 mm 0.25 in6.4 mm
07:57 PM 78.1°F25.6°C 63.1°F17.3°C 61% Calm Calm -- 29.88 in1011.9 mb 0.00 in0.0 mm 0.00 in0.0 mm 0.25 in6.4 mm
08:02 PM 78.0°F25.6°C 63.5°F17.5°C 62% Calm Calm -- 29.88 in1011.9 mb 0.00 in0.0 mm 0.00 in0.0 mm 0.25 in6.4 mm
08:07 PM 77.9°F25.5°C 63.0°F17.2°C 61% Calm Calm 4.0 mph6.4 kmh 29.88 in1011.9 mb 0.00 in0.0 mm 0.00 in0.0 mm 0.25 in6.4 mm
08:12 PM 77.8°F25.4°C 63.3°F17.4°C 62% Calm Calm -- 29.88 in1011.9 mb 0.00 in0.0 mm 0.00 in0.0 mm 0.25 in6.4 mm
08:17 PM 77.7°F25.4°C 63.2°F17.3°C 62% Calm Calm 5.0 mph8.0 kmh 29.88 in1011.9 mb 0.00 in0.0 mm 0.00 in0.0 mm 0.25 in6.4 mm
08:22 PM 77.6°F25.3°C 62.7°F17.1°C 61% Calm Calm -- 29.88 in1011.9 mb 0.00 in0.0 mm 0.00 in0.0 mm 0.25 in6.4 mm
08:27 PM 77.6°F25.3°C 63.2°F17.3°C 62% Calm Calm 1.0 mph1.6 kmh 29.88 in1011.9 mb 0.00 in0.0 mm 0.00 in0.0 mm 0.25 in6.4 mm
08:32 PM 77.5°F25.3°C 63.1°F17.3°C 62% Calm Calm -- 29.88 in1011.9 mb 0.00 in0.0 mm 0.00 in0.0 mm 0.25 in6.4 mm
08:37 PM 77.3°F25.2°C 63.3°F17.4°C 63% Calm Calm -- 29.89 in1012.2 mb 0.00 in0.0 mm 0.00 in0.0 mm 0.25 in6.4 mm
08:42 PM 77.1°F25.1°C 63.2°F17.3°C 63% Calm Calm -- 29.89 in1012.2 mb 0.00 in0.0 mm 0.00 in0.0 mm 0.25 in6.4 mm
08:47 PM 76.9°F24.9°C 63.0°F17.2°C 63% Calm Calm -- 29.89 in1012.2 mb 0.00 in0.0 mm 0.00 in0.0 mm 0.25 in6.4 mm
08:52 PM 76.6°F24.8°C 63.2°F17.3°C 64% Calm Calm -- 29.89 in1012.2 mb 0.00 in0.0 mm 0.00 in0.0 mm 0.25 in6.4 mm
08:57 PM 76.3°F24.6°C 62.9°F17.2°C 64% Calm Calm -- 29.89 in1012.2 mb 0.00 in0.0 mm 0.00 in0.0 mm 0.25 in6.4 mm
09:02 PM 76.0°F24.4°C 62.6°F17.0°C 64% Calm Calm -- 29.89 in1012.2 mb 0.00 in0.0 mm 0.00 in0.0 mm 0.25 in6.4 mm
09:07 PM 75.7°F24.3°C 62.8°F17.1°C 65% Calm Calm -- 29.89 in1012.2 mb 0.00 in0.0 mm 0.00 in0.0 mm 0.25 in6.4 mm
09:12 PM 75.4°F24.1°C 62.5°F16.9°C 65% Calm Calm -- 29.90 in1012.5 mb 0.00 in0.0 mm 0.00 in0.0 mm 0.25 in6.4 mm
09:17 PM 75.1°F23.9°C 62.2°F16.8°C 65% Calm Calm -- 29.90 in1012.5 mb 0.00 in0.0 mm 0.00 in0.0 mm 0.25 in6.4 mm
09:22 PM 74.8°F23.8°C 61.9°F16.6°C 65% Calm Calm -- 29.90 in1012.5 mb 0.00 in0.0 mm 0.00 in0.0 mm 0.25 in6.4 mm
09:27 PM 74.4°F23.6°C 62.4°F16.9°C 67% Calm Calm -- 29.90 in1012.5 mb 0.00 in0.0 mm 0.00 in0.0 mm 0.25 in6.4 mm
09:32 PM 74.2°F23.4°C 62.2°F16.8°C 67% Calm Calm -- 29.90 in1012.5 mb 0.00 in0.0 mm 0.00 in0.0 mm 0.25 in6.4 mm
09:37 PM 74.0°F23.3°C 62.5°F16.9°C 68% Calm Calm -- 29.91 in1012.9 mb 0.00 in0.0 mm 0.00 in0.0 mm 0.25 in6.4 mm
09:42 PM 73.7°F23.2°C 62.6°F17.0°C 69% Calm Calm -- 29.91 in1012.9 mb 0.00 in0.0 mm 0.00 in0.0 mm 0.25 in6.4 mm
09:47 PM 73.5°F23.1°C 62.4°F16.9°C 69% Calm Calm -- 29.91 in1012.9 mb 0.00 in0.0 mm 0.00 in0.0 mm 0.25 in6.4 mm
09:52 PM 73.2°F22.9°C 62.1°F16.7°C 69% Calm Calm -- 29.91 in1012.9 mb 0.00 in0.0 mm 0.00 in0.0 mm 0.25 in6.4 mm
09:57 PM 72.9°F22.7°C 61.9°F16.6°C 69% Calm Calm -- 29.91 in1012.9 mb 0.00 in0.0 mm 0.00 in0.0 mm 0.25 in6.4 mm
10:02 PM 72.8°F22.7°C 62.2°F16.8°C 70% Calm Calm -- 29.92 in1013.2 mb 0.00 in0.0 mm 0.00 in0.0 mm 0.25 in6.4 mm
10:07 PM 72.6°F22.6°C 62.0°F16.7°C 70% Calm Calm -- 29.92 in1013.2 mb 0.00 in0.0 mm 0.00 in0.0 mm 0.25 in6.4 mm
10:12 PM 72.3°F22.4°C 62.1°F16.7°C 71% Calm Calm -- 29.92 in1013.2 mb 0.00 in0.0 mm 0.00 in0.0 mm 0.25 in6.4 mm
10:17 PM 72.0°F22.2°C 62.2°F16.8°C 72% Calm Calm -- 29.92 in1013.2 mb 0.00 in0.0 mm 0.00 in0.0 mm 0.25 in6.4 mm
10:22 PM 71.7°F22.1°C 62.8°F17.1°C 74% Calm Calm -- 29.92 in1013.2 mb 0.00 in0.0 mm 0.00 in0.0 mm 0.25 in6.4 mm
10:27 PM 71.4°F21.9°C 62.1°F16.7°C 73% Calm Calm -- 29.92 in1013.2 mb 0.00 in0.0 mm 0.00 in0.0 mm 0.25 in6.4 mm
10:32 PM 71.2°F21.8°C 62.3°F16.8°C 74% Calm Calm -- 29.92 in1013.2 mb 0.00 in0.0 mm 0.00 in0.0 mm 0.25 in6.4 mm
10:37 PM 71.0°F21.7°C 62.1°F16.7°C 74% Calm Calm -- 29.92 in1013.2 mb 0.00 in0.0 mm 0.00 in0.0 mm 0.25 in6.4 mm
10:42 PM 70.8°F21.6°C 62.3°F16.8°C 75% Calm Calm -- 29.92 in1013.2 mb 0.00 in0.0 mm 0.00 in0.0 mm 0.25 in6.4 mm
10:47 PM 70.6°F21.4°C 62.5°F16.9°C 76% Calm Calm -- 29.93 in1013.5 mb 0.00 in0.0 mm 0.00 in0.0 mm 0.25 in6.4 mm
10:52 PM 70.5°F21.4°C 62.8°F17.1°C 77% Calm Calm -- 29.93 in1013.5 mb 0.00 in0.0 mm 0.00 in0.0 mm 0.25 in6.4 mm
10:57 PM 70.4°F21.3°C 63.0°F17.2°C 78% Calm Calm -- 29.93 in1013.5 mb 0.00 in0.0 mm 0.00 in0.0 mm 0.25 in6.4 mm
11:02 PM 70.2°F21.2°C 62.8°F17.1°C 78% Calm Calm -- 29.93 in1013.5 mb 0.00 in0.0 mm 0.00 in0.0 mm 0.25 in6.4 mm
11:07 PM 70.0°F21.1°C 62.7°F17.1°C 78% Calm Calm -- 29.93 in1013.5 mb 0.00 in0.0 mm 0.00 in0.0 mm 0.25 in6.4 mm
11:12 PM 69.8°F21.0°C 62.5°F16.9°C 78% Calm Calm -- 29.93 in1013.5 mb 0.00 in0.0 mm 0.00 in0.0 mm 0.25 in6.4 mm
11:17 PM 69.7°F20.9°C 62.7°F17.1°C 79% Calm Calm -- 29.93 in1013.5 mb 0.00 in0.0 mm 0.00 in0.0 mm 0.25 in6.4 mm
11:22 PM 69.6°F20.9°C 62.6°F17.0°C 79% Calm Calm -- 29.93 in1013.5 mb 0.00 in0.0 mm 0.00 in0.0 mm 0.25 in6.4 mm
11:27 PM 69.6°F20.9°C 63.0°F17.2°C 80% Calm Calm -- 29.93 in1013.5 mb 0.00 in0.0 mm 0.00 in0.0 mm 0.25 in6.4 mm
11:32 PM 69.7°F20.9°C 63.1°F17.3°C 80% Calm Calm -- 29.93 in1013.5 mb 0.00 in0.0 mm 0.00 in0.0 mm 0.25 in6.4 mm
11:37 PM 69.7°F20.9°C 63.1°F17.3°C 80% Calm Calm -- 29.94 in1013.9 mb 0.00 in0.0 mm 0.00 in0.0 mm 0.25 in6.4 mm
11:42 PM 69.7°F20.9°C 63.5°F17.5°C 81% Calm Calm -- 29.94 in1013.9 mb 0.00 in0.0 mm 0.00 in0.0 mm 0.25 in6.4 mm
11:47 PM 69.7°F20.9°C 63.5°F17.5°C 81% Calm Calm -- 29.94 in1013.9 mb 0.00 in0.0 mm 0.00 in0.0 mm 0.25 in6.4 mm
11:52 PM 69.7°F20.9°C 63.5°F17.5°C 81% Calm Calm -- 29.94 in1013.9 mb 0.00 in0.0 mm 0.00 in0.0 mm 0.25 in6.4 mm
11:57 PM 69.6°F20.9°C 63.4°F17.4°C 81% Calm Calm -- 29.94 in1013.9 mb 0.00 in0.0 mm 0.00 in0.0 mm 0.25 in6.4 mm